Time;durP1;ratioP1;P1;durP2;ratioP2;P2;SDS_P1;SDS_P2;PMS_P1;PMS_P2;Temp;Humidity;BMP_temperature;BMP_pressure;BME280_temperature;BME280_humidity;BME280_pressure;Samples;Min_cycle;Max_cycle;Signal;HPM_P1;HPM_P2
2023/12/02 00:02:13;;;;;;;1.98;0.90;;;;;;;14.10;49.23;93991.69;5089279;28;20058;-67
2023/12/02 00:04:38;;;;;;;3.03;0.93;;;;;;;14.26;48.21;94001.25;5089899;28;20036;-67
2023/12/02 00:07:04;;;;;;;2.55;1.13;;;;;;;14.16;49.17;93969.31;5096143;28;20020;-67
2023/12/02 00:09:29;;;;;;;4.40;1.40;;;;;;;14.12;48.96;93981.06;5092301;28;20414;-67
2023/12/02 00:11:55;;;;;;;3.05;1.00;;;;;;;14.34;47.54;93979.53;5080133;28;20043;-67
2023/12/02 00:14:20;;;;;;;2.20;0.80;;;;;;;14.34;46.89;93966.47;5088898;28;20044;-67
2023/12/02 00:16:45;;;;;;;3.53;0.80;;;;;;;14.46;47.16;93975.56;5088962;28;20016;-67
2023/12/02 00:19:11;;;;;;;2.25;1.10;;;;;;;14.46;47.17;94001.69;5088125;28;20043;-67
2023/12/02 00:21:36;;;;;;;4.20;1.55;;;;;;;14.39;47.31;93979.81;5087354;28;20465;-67
2023/12/02 00:24:02;;;;;;;3.75;1.17;;;;;;;14.55;46.90;93992.84;5087513;28;20407;-68
2023/12/02 00:26:27;;;;;;;4.75;0.90;;;;;;;14.47;46.64;93995.47;5099648;28;20495;-67
2023/12/02 00:28:53;;;;;;;4.30;1.00;;;;;;;14.52;46.04;93969.69;5107618;28;20044;-67
2023/12/02 00:31:19;;;;;;;5.40;1.10;;;;;;;14.33;46.35;93970.88;5086696;28;20059;-67
2023/12/02 00:33:45;;;;;;;3.33;0.90;;;;;;;14.55;47.23;93997.28;5088124;28;20504;-67
2023/12/02 00:36:10;;;;;;;2.35;0.90;;;;;;;14.38;47.22;93952.09;5089746;28;20032;-67
2023/12/02 00:38:36;;;;;;;2.92;0.98;;;;;;;14.43;46.96;93976.72;5084480;28;20126;-67
2023/12/02 00:41:01;;;;;;;2.50;1.02;;;;;;;14.47;46.49;93983.22;5070551;28;20024;-67
2023/12/02 00:43:27;;;;;;;4.03;0.95;;;;;;;14.51;47.66;94008.03;5070545;28;20028;-67
2023/12/02 00:45:52;;;;;;;3.65;1.85;;;;;;;14.33;48.81;93985.75;5052584;28;20414;-67
2023/12/02 00:48:17;;;;;;;5.80;3.05;;;;;;;14.34;49.10;93998.63;5061527;28;20055;-67
2023/12/02 00:50:43;;;;;;;5.93;2.60;;;;;;;14.16;50.92;94001.47;5089393;28;20033;-67
2023/12/02 00:53:08;;;;;;;7.50;2.30;;;;;;;14.02;50.95;93978.66;5088453;28;20470;-67
2023/12/02 00:55:34;;;;;;;6.82;2.53;;;;;;;13.51;51.89;94007.66;5090614;28;20490;-67
2023/12/02 00:57:59;;;;;;;4.05;2.08;;;;;;;13.27;54.26;94013.69;5089625;28;20035;-67
2023/12/02 01:00:24;;;;;;;4.07;2.20;;;;;;;13.19;53.97;94003.22;5089139;28;20032;-67
2023/12/02 01:02:50;;;;;;;8.82;3.00;;;;;;;12.80;54.65;93988.16;5089446;28;20414;-67
2023/12/02 01:05:15;;;;;;;4.55;2.00;;;;;;;12.63;54.88;93986.53;5089454;28;20058;-67
2023/12/02 01:07:41;;;;;;;4.35;2.00;;;;;;;12.42;56.80;93994.75;5088602;28;20044;-67
2023/12/02 01:10:07;;;;;;;8.68;2.90;;;;;;;12.42;58.01;93994.75;5090912;28;20477;-67
2023/12/02 01:12:32;;;;;;;10.70;4.18;;;;;;;11.90;58.83;93987.88;5089584;28;20028;-68
2023/12/02 01:14:57;;;;;;;5.45;3.40;;;;;;;11.71;59.48;93980.25;5088344;28;20036;-67
2023/12/02 01:17:23;;;;;;;9.82;3.22;;;;;;;11.95;59.63;94011.66;5089340;28;20028;-66
2023/12/02 01:19:48;;;;;;;4.32;2.65;;;;;;;11.87;60.24;94019.41;5090637;28;20032;-67
2023/12/02 01:22:14;;;;;;;5.90;2.60;;;;;;;11.72;60.75;94003.50;5090798;28;20036;-67
2023/12/02 01:24:39;;;;;;;5.97;2.17;;;;;;;11.54;61.39;94000.97;5074933;28;20081;-66
2023/12/02 01:27:04;;;;;;;5.13;2.25;;;;;;;11.51;61.26;93985.66;5110167;28;20024;-67
2023/12/02 01:29:30;;;;;;;4.78;2.33;;;;;;;11.40;61.68;93975.53;5113086;28;20070;-69
2023/12/02 01:31:55;;;;;;;5.65;2.08;;;;;;;11.06;62.10;94002.25;5114489;28;20031;-67
2023/12/02 01:34:21;;;;;;;7.13;2.72;;;;;;;10.96;62.85;93978.09;5099970;28;20465;-67
2023/12/02 01:36:46;;;;;;;3.63;1.73;;;;;;;11.12;62.45;93975.63;5081483;28;20275;-69
2023/12/02 01:39:12;;;;;;;3.50;1.60;;;;;;;11.15;62.55;93990.94;5118845;27;20063;-67
2023/12/02 01:41:38;;;;;;;7.35;1.58;;;;;;;11.22;62.66;94011.94;5121587;27;20161;-67
2023/12/02 01:44:04;;;;;;;4.75;1.65;;;;;;;11.25;63.09;93996.03;5072572;28;20032;-66
2023/12/02 01:46:29;;;;;;;3.78;1.70;;;;;;;11.30;62.79;93999.00;5088825;28;20047;-70
2023/12/02 01:48:55;;;;;;;5.93;1.83;;;;;;;11.32;62.62;93997.06;5092593;28;20031;-66
2023/12/02 01:51:20;;;;;;;6.25;1.50;;;;;;;11.44;62.57;93997.63;5085204;28;20503;-67
2023/12/02 01:53:46;;;;;;;5.22;1.70;;;;;;;11.18;62.36;93950.81;5095663;28;20082;-69
2023/12/02 01:56:11;;;;;;;6.45;1.90;;;;;;;11.15;61.94;93949.34;5070984;28;20039;-67
2023/12/02 01:58:37;;;;;;;4.82;1.33;;;;;;;11.62;59.09;93948.19;5071120;28;20035;-67
2023/12/02 02:01:03;;;;;;;6.03;2.17;;;;;;;11.57;60.86;93961.66;5085208;28;20040;-67
2023/12/02 02:03:28;;;;;;;5.05;1.90;;;;;;;11.53;61.34;93965.53;5105332;28;20088;-68
2023/12/02 02:05:54;;;;;;;4.60;1.77;;;;;;;11.17;61.97;93963.00;5087633;28;20032;-67
2023/12/02 02:08:19;;;;;;;4.03;1.60;;;;;;;11.32;61.61;93970.25;5088107;28;20032;-67
2023/12/02 02:10:44;;;;;;;6.57;2.08;;;;;;;11.48;61.74;93987.75;5085556;28;20126;-67
2023/12/02 02:13:10;;;;;;;6.38;2.22;;;;;;;11.00;62.25;93955.22;5088607;28;20042;-67
2023/12/02 02:15:35;;;;;;;6.03;2.40;;;;;;;10.82;63.48;93963.03;5105963;28;20035;-67
2023/12/02 02:18:01;;;;;;;5.55;2.65;;;;;;;10.83;64.00;93967.25;5070949;28;20665;-68
2023/12/02 02:20:26;;;;;;;6.68;2.25;;;;;;;10.82;63.43;93956.06;5084998;28;20048;-67
2023/12/02 02:22:52;;;;;;;3.65;1.65;;;;;;;10.90;63.27;93968.31;5071257;28;20028;-66
2023/12/02 02:25:17;;;;;;;4.30;1.67;;;;;;;10.93;63.17;93942.84;5089727;28;20020;-67
2023/12/02 02:27:42;;;;;;;6.10;1.65;;;;;;;10.96;62.64;93934.75;5086611;28;20047;-67
2023/12/02 02:30:08;;;;;;;4.18;1.65;;;;;;;11.22;61.16;93923.53;5084775;28;20096;-66
2023/12/02 02:32:34;;;;;;;8.45;1.83;;;;;;;11.43;60.63;93927.59;5088290;28;20044;-67
2023/12/02 02:34:59;;;;;;;6.22;1.50;;;;;;;11.37;60.12;93900.41;5070787;28;20024;-67
2023/12/02 02:37:25;;;;;;;3.58;1.60;;;;;;;11.96;58.52;93940.41;5091925;28;20437;-68
2023/12/02 02:39:50;;;;;;;6.25;1.70;;;;;;;12.06;57.68;93928.09;5087002;28;20630;-67
2023/12/02 02:42:16;;;;;;;7.28;3.80;;;;;;;12.17;57.93;93936.56;5088227;28;20513;-67
2023/12/02 02:44:41;;;;;;;4.93;1.85;;;;;;;12.18;57.29;93930.41;5090204;28;20030;-67
2023/12/02 02:47:06;;;;;;;5.32;1.90;;;;;;;12.07;57.68;93929.72;5087645;28;20032;-67
2023/12/02 02:49:32;;;;;;;6.43;1.90;;;;;;;12.27;55.96;93914.63;5086496;28;20482;-67
2023/12/02 02:51:57;;;;;;;3.65;1.30;;;;;;;12.30;55.75;93918.72;5088054;28;20055;-67
2023/12/02 02:54:23;;;;;;;5.57;1.67;;;;;;;12.06;56.92;93928.09;5087292;28;20440;-67
2023/12/02 02:56:48;;;;;;;14.80;6.05;;;;;;;12.00;56.94;93918.28;5086155;28;20437;-67
2023/12/02 02:59:13;;;;;;;5.03;1.83;;;;;;;12.02;56.23;93921.56;5070428;28;20032;-67
2023/12/02 03:01:40;;;;;;;3.55;1.13;;;;;;;12.07;56.11;93911.50;5087381;28;20055;-67
2023/12/02 03:04:05;;;;;;;3.33;1.55;;;;;;;12.09;56.37;93900.94;5086159;28;20401;-68
2023/12/02 03:06:30;;;;;;;5.20;1.35;;;;;;;12.17;56.33;93918.34;5087229;28;20027;-67
2023/12/02 03:08:56;;;;;;;4.68;1.50;;;;;;;11.95;56.60;93920.56;5108939;27;20477;-67
2023/12/02 03:11:21;;;;;;;8.23;1.67;;;;;;;11.89;57.60;93920.34;5086972;28;20032;-67
2023/12/02 03:13:47;;;;;;;3.28;1.42;;;;;;;11.87;57.82;93910.13;5088657;28;20028;-67
2023/12/02 03:16:12;;;;;;;5.43;1.50;;;;;;;11.82;57.36;93904.53;5107742;27;20452;-67
2023/12/02 03:18:38;;;;;;;2.88;1.40;;;;;;;11.87;57.61;93901.47;5086477;28;20036;-67
2023/12/02 03:21:03;;;;;;;6.55;1.33;;;;;;;11.95;57.57;93901.50;5085355;28;20339;-67
2023/12/02 03:23:29;;;;;;;3.95;1.35;;;;;;;11.63;57.34;93876.97;5076411;28;20096;-67
2023/12/02 03:25:54;;;;;;;3.65;1.45;;;;;;;11.72;57.69;93914.25;5087092;28;20481;-67
2023/12/02 03:28:21;;;;;;;4.45;1.50;;;;;;;11.75;57.78;93916.53;5087329;28;20016;-67
2023/12/02 03:30:46;;;;;;;5.05;1.80;;;;;;;11.87;57.83;93923.13;5083993;28;20043;-67
2023/12/02 03:33:12;;;;;;;4.43;1.50;;;;;;;11.99;56.30;93927.06;5086610;28;20032;-67
2023/12/02 03:35:37;;;;;;;5.55;1.90;;;;;;;11.88;57.16;93919.56;5086430;28;20089;-67
2023/12/02 03:38:02;;;;;;;3.88;1.42;;;;;;;11.76;56.58;93873.94;5087336;28;20024;-67
2023/12/02 03:40:28;;;;;;;6.72;1.45;;;;;;;11.99;56.35;93882.03;5084105;28;20048;-67
2023/12/02 03:42:53;;;;;;;5.22;1.55;;;;;;;12.08;55.04;93873.25;5087813;28;20023;-67
2023/12/02 03:45:19;;;;;;;4.65;1.67;;;;;;;12.22;54.67;93896.06;5087314;28;20035;-67
2023/12/02 03:47:44;;;;;;;3.63;1.30;;;;;;;12.26;53.66;93888.75;5088739;28;20027;-67
2023/12/02 03:50:10;;;;;;;5.60;1.30;;;;;;;12.42;53.52;93873.16;5085073;28;20081;-67
2023/12/02 03:52:36;;;;;;;3.65;1.63;;;;;;;12.35;54.41;93900.81;5090404;27;20035;-67
2023/12/02 03:55:01;;;;;;;4.63;1.58;;;;;;;12.17;54.90;93910.53;5087319;28;20042;-67
2023/12/02 03:57:27;;;;;;;6.32;2.00;;;;;;;12.23;54.97;93918.53;5121198;27;20066;-68
2023/12/02 03:59:52;;;;;;;6.47;1.77;;;;;;;12.16;54.76;93903.69;5101101;28;20059;-67
2023/12/02 04:02:18;;;;;;;5.03;1.60;;;;;;;12.23;54.39;93904.69;5087331;28;20036;-68
2023/12/02 04:04:43;;;;;;;2.60;1.30;;;;;;;11.95;55.19;93904.13;5089074;28;20035;-67
2023/12/02 04:07:09;;;;;;;5.03;2.40;;;;;;;12.07;55.52;93911.50;5084763;28;20028;-67
2023/12/02 04:09:34;;;;;;;7.25;2.70;;;;;;;11.99;56.05;93908.84;5092007;28;20409;-66
2023/12/02 04:12:00;;;;;;;5.70;2.70;;;;;;;11.80;55.95;93916.88;5087492;28;20107;-67
2023/12/02 04:14:25;;;;;;;6.05;2.53;;;;;;;11.52;56.62;93893.66;5087947;28;20496;-67
2023/12/02 04:16:50;;;;;;;4.97;1.92;;;;;;;11.15;57.54;93891.34;5084952;28;20024;-67
2023/12/02 04:19:16;;;;;;;5.88;1.67;;;;;;;11.23;57.50;93870.59;5086825;28;20039;-67
2023/12/02 04:21:42;;;;;;;5.65;1.48;;;;;;;11.38;56.77;93876.84;5085339;28;20032;-67
2023/12/02 04:24:08;;;;;;;4.70;1.38;;;;;;;11.39;56.82;93872.44;5087058;28;20030;-68
2023/12/02 04:26:33;;;;;;;7.03;1.60;;;;;;;11.34;56.79;93861.72;5085854;28;20525;-66
2023/12/02 04:28:59;;;;;;;6.57;3.33;;;;;;;11.24;57.46;93859.22;5068945;28;20066;-67
2023/12/02 04:31:24;;;;;;;4.68;2.35;;;;;;;11.44;58.32;93846.81;5085227;28;20508;-67
2023/12/02 04:33:49;;;;;;;5.93;2.97;;;;;;;11.18;58.79;93831.25;5088753;28;20035;-67
2023/12/02 04:36:15;;;;;;;5.35;2.70;;;;;;;10.85;60.13;93817.25;5085316;28;20036;-67
2023/12/02 04:38:41;;;;;;;5.88;2.28;;;;;;;10.74;61.11;93845.09;5102911;28;20044;-66
2023/12/02 04:41:07;;;;;;;7.65;2.40;;;;;;;11.02;60.45;93831.16;5086110;28;20035;-67
2023/12/02 04:43:32;;;;;;;4.13;2.60;;;;;;;10.56;61.85;93823.56;5088410;28;20025;-67
2023/12/02 04:45:58;;;;;;;7.68;3.40;;;;;;;10.71;62.10;93836.81;5090810;28;20185;-67
2023/12/02 04:48:23;;;;;;;4.82;2.67;;;;;;;10.74;60.38;93807.91;5072554;28;20020;-67
2023/12/02 04:50:48;;;;;;;6.32;2.45;;;;;;;10.73;59.30;93793.31;5082445;28;20040;-67
2023/12/02 04:53:14;;;;;;;5.57;2.38;;;;;;;10.54;60.28;93796.09;5098313;28;20040;-67
2023/12/02 04:55:39;;;;;;;4.00;2.30;;;;;;;10.63;60.59;93803.78;5108925;28;20030;-67
2023/12/02 04:58:05;;;;;;;3.40;2.20;;;;;;;10.60;60.72;93809.28;5112963;28;20500;-67
2023/12/02 05:00:30;;;;;;;7.80;2.30;;;;;;;10.59;61.25;93817.25;5113500;28;20035;-68
2023/12/02 05:02:56;;;;;;;4.78;2.33;;;;;;;10.69;61.79;93821.34;5109514;27;20100;-67
2023/12/02 05:05:21;;;;;;;4.82;2.70;;;;;;;10.46;62.45;93823.63;5086552;28;20036;-67
2023/12/02 05:07:47;;;;;;;7.40;2.90;;;;;;;10.74;62.06;93846.88;5098991;28;20024;-68
2023/12/02 05:10:12;;;;;;;7.75;3.55;;;;;;;10.36;63.35;93845.44;5091488;28;20075;-67
2023/12/02 05:12:38;;;;;;;4.68;2.33;;;;;;;10.49;62.75;93858.88;5085928;28;20578;-67
2023/12/02 05:15:04;;;;;;;5.30;2.08;;;;;;;10.43;61.84;93841.28;5089677;28;20096;-67
2023/12/02 05:17:29;;;;;;;5.13;2.17;;;;;;;10.44;62.31;93841.13;5088928;28;20035;-68
2023/12/02 05:19:55;;;;;;;3.72;2.60;;;;;;;10.25;62.73;93836.91;5091208;28;20024;-67
2023/12/02 05:22:21;;;;;;;3.97;2.53;;;;;;;10.36;62.72;93869.63;5073596;28;20032;-67
2023/12/02 05:24:46;;;;;;;5.53;2.63;;;;;;;10.37;63.12;93842.69;5071821;28;20887;-68
2023/12/02 05:27:12;;;;;;;4.03;2.53;;;;;;;10.43;63.76;93836.09;5089375;28;20035;-68
2023/12/02 05:29:38;;;;;;;4.38;2.10;;;;;;;10.28;63.28;93859.19;5088219;28;20123;-68
2023/12/02 05:32:03;;;;;;;3.53;1.83;;;;;;;10.18;63.96;93859.22;5089044;28;20565;-68
2023/12/02 05:34:29;;;;;;;4.55;2.28;;;;;;;10.24;63.48;93843.03;5095297;28;20040;-67
2023/12/02 05:36:54;;;;;;;5.47;1.88;;;;;;;10.28;62.80;93831.44;5089977;28;20092;-69
2023/12/02 05:39:20;;;;;;;3.78;1.60;;;;;;;10.45;62.69;93845.38;5089078;28;20047;-69
2023/12/02 05:41:45;;;;;;;6.68;2.10;;;;;;;10.43;63.30;93839.50;5088881;28;20394;-69
2023/12/02 05:44:11;;;;;;;4.32;1.88;;;;;;;10.58;63.05;93857.97;5091981;28;20397;-69
2023/12/02 05:46:39;;;;;;;6.38;2.00;;;;;;;10.68;62.96;93871.69;5084644;28;20506;-70
2023/12/02 05:49:05;;;;;;;6.30;3.13;;;;;;;10.72;63.05;93860.00;5067953;28;20027;-68
2023/12/02 05:51:30;;;;;;;4.68;2.22;;;;;;;10.52;63.27;93833.41;5088815;28;20387;-67
2023/12/02 05:53:56;;;;;;;3.83;1.90;;;;;;;10.41;63.27;93814.66;5086857;28;20032;-68
2023/12/02 05:56:24;;;;;;;5.28;2.60;;;;;;;10.47;63.90;93816.66;5088915;28;20329;-69
2023/12/02 05:58:50;;;;;;;3.95;2.10;;;;;;;10.33;64.33;93820.59;5085443;28;20513;-68
2023/12/02 06:01:20;;;;;;;5.65;2.20;;;;;;;10.24;65.12;93801.50;5074140;28;20381;-71
2023/12/02 06:03:46;;;;;;;5.75;2.22;;;;;;;10.06;65.07;93832.66;5103984;27;20083;-69
2023/12/02 06:06:11;;;;;;;52.35;29.15;;;;;;;9.92;65.97;93819.38;5077458;28;20111;-67
2023/12/02 06:08:37;;;;;;;13.65;7.82;;;;;;;10.20;65.39;93805.38;5087248;28;20400;-67
2023/12/02 06:11:02;;;;;;;10.45;6.25;;;;;;;10.05;65.74;93815.44;5071922;28;20031;-68
2023/12/02 06:13:29;;;;;;;12.90;6.47;;;;;;;10.23;65.24;93822.44;5090067;28;20028;-67
2023/12/02 06:15:54;;;;;;;16.52;6.10;;;;;;;10.12;65.55;93836.44;5089154;28;20071;-68
2023/12/02 06:18:20;;;;;;;10.90;3.40;;;;;;;9.86;66.70;93844.13;5088196;28;20046;-68
2023/12/02 06:20:45;;;;;;;11.82;7.63;;;;;;;9.84;67.01;93861.63;5060451;28;20481;-67
2023/12/02 06:23:11;;;;;;;7.05;4.15;;;;;;;10.16;66.96;93870.69;5105847;28;20489;-67
2023/12/02 06:25:36;;;;;;;11.65;5.93;;;;;;;10.10;65.47;93869.50;5095553;28;20051;-67
2023/12/02 06:28:02;;;;;;;7.82;4.38;;;;;;;10.14;65.32;93865.66;5085072;28;20078;-67
2023/12/02 06:30:27;;;;;;;7.25;3.33;;;;;;;9.92;64.72;93860.88;5103207;28;20052;-67
2023/12/02 06:32:53;;;;;;;7.28;3.20;;;;;;;9.76;66.66;93870.13;5101456;28;20069;-67
2023/12/02 06:35:18;;;;;;;6.85;2.65;;;;;;;9.98;66.72;93866.31;5104493;28;20093;-67
2023/12/02 06:37:43;;;;;;;5.15;2.83;;;;;;;9.88;65.76;93847.38;5083264;28;20020;-69
2023/12/02 06:40:09;;;;;;;7.07;2.50;;;;;;;9.97;65.42;93869.03;5103102;28;20036;-66
2023/12/02 06:42:35;;;;;;;6.03;2.30;;;;;;;9.92;64.31;93859.13;5094622;28;20035;-67
2023/12/02 06:45:00;;;;;;;3.30;2.20;;;;;;;9.89;65.31;93861.16;5097003;28;20027;-67
2023/12/02 06:47:26;;;;;;;10.52;4.05;;;;;;;10.04;66.36;93870.91;5102784;28;20032;-67
2023/12/02 06:49:51;;;;;;;8.05;4.70;;;;;;;9.94;66.79;93879.72;5102372;28;20045;-67
2023/12/02 06:52:17;;;;;;;7.03;3.10;;;;;;;9.94;67.05;93861.56;5099757;28;20017;-68
2023/12/02 06:54:42;;;;;;;7.65;3.30;;;;;;;9.89;66.41;93840.41;5100258;28;20020;-68
2023/12/02 06:57:07;;;;;;;5.95;3.05;;;;;;;9.72;67.50;93853.22;5103853;28;20035;-68
2023/12/02 06:59:33;;;;;;;4.57;2.85;;;;;;;9.74;66.70;93864.25;5100768;28;20485;-67
2023/12/02 07:01:58;;;;;;;8.52;3.92;;;;;;;9.79;66.84;93880.19;5097486;28;20085;-67
2023/12/02 07:04:24;;;;;;;9.38;4.93;;;;;;;9.73;65.98;93870.41;5100690;28;20027;-68
2023/12/02 07:06:49;;;;;;;6.20;3.70;;;;;;;9.75;65.96;93870.25;5082295;28;20051;-68
2023/12/02 07:09:15;;;;;;;5.28;3.28;;;;;;;9.76;66.76;93866.72;5087836;28;20085;-67
2023/12/02 07:11:40;;;;;;;4.57;2.72;;;;;;;9.75;66.83;93886.66;5074378;28;20104;-69
2023/12/02 07:14:06;;;;;;;7.82;4.78;;;;;;;9.81;66.67;93891.25;5075947;28;20097;-68
2023/12/02 07:16:31;;;;;;;6.00;3.92;;;;;;;9.38;67.09;93848.59;5091675;28;20028;-67
2023/12/02 07:18:57;;;;;;;8.43;3.53;;;;;;;9.68;66.06;93902.94;5093872;28;20016;-67
2023/12/02 07:21:23;;;;;;;5.53;3.35;;;;;;;9.51;66.83;93868.22;5085677;28;20043;-67
2023/12/02 07:23:48;;;;;;;4.20;2.58;;;;;;;9.76;65.64;93888.28;5070305;28;20031;-68
2023/12/02 07:26:14;;;;;;;4.82;2.78;;;;;;;9.72;66.32;93897.31;5071900;28;20035;-69
2023/12/02 07:28:42;;;;;;;6.40;3.22;;;;;;;9.73;66.73;93911.09;5089845;28;20077;-68
2023/12/02 07:31:15;;;;;;;5.30;2.78;;;;;;;9.76;67.33;93888.28;5071986;28;20489;-68
2023/12/02 07:33:40;;;;;;;6.65;2.70;;;;;;;9.82;68.02;93892.88;5094437;28;20028;-68
2023/12/02 07:36:07;;;;;;;7.85;2.95;;;;;;;9.61;67.31;93910.44;5088189;28;20108;-67
2023/12/02 07:38:33;;;;;;;5.60;2.38;;;;;;;9.78;65.25;93870.81;5090471;28;20028;-68
2023/12/02 07:40:58;;;;;;;4.55;2.45;;;;;;;9.88;66.82;93872.50;5085359;28;20517;-68
2023/12/02 07:43:23;;;;;;;6.50;2.45;;;;;;;9.69;65.33;93871.66;5067745;28;20039;-68
2023/12/02 07:45:50;;;;;;;4.60;2.95;;;;;;;9.62;67.01;93858.47;5083064;28;20035;-68
2023/12/02 07:48:16;;;;;;;9.57;3.50;;;;;;;9.89;66.70;93861.16;5088198;28;20027;-67
2023/12/02 07:50:41;;;;;;;9.57;3.58;;;;;;;9.77;67.54;93863.16;5086818;28;20031;-68
2023/12/02 07:53:07;;;;;;;10.48;4.43;;;;;;;9.93;67.39;93865.13;5071627;28;20061;-68
2023/12/02 07:55:32;;;;;;;10.48;4.70;;;;;;;9.98;67.11;93873.28;5085558;28;20035;-68
2023/12/02 07:57:57;;;;;;;9.02;4.45;;;;;;;9.89;67.37;93851.63;5091691;28;20417;-69
2023/12/02 08:00:23;;;;;;;10.93;4.65;;;;;;;9.81;68.10;93839.38;5094853;28;20039;-68
2023/12/02 08:02:49;;;;;;;9.13;3.20;;;;;;;9.76;67.11;93844.19;5069974;28;20035;-69
2023/12/02 08:05:14;;;;;;;7.60;3.10;;;;;;;9.81;67.77;93843.75;5103575;28;20024;-70
2023/12/02 08:07:39;;;;;;;7.45;2.72;;;;;;;9.87;66.44;93826.78;5085931;28;20035;-67
2023/12/02 08:10:06;;;;;;;8.05;2.40;;;;;;;9.86;68.29;93851.91;5089896;28;20027;-67
2023/12/02 08:12:32;;;;;;;6.07;3.05;;;;;;;9.72;67.84;93855.81;5073149;28;20032;-67
2023/12/02 08:14:58;;;;;;;17.17;8.68;;;;;;;9.91;65.88;93848.88;5089078;28;20085;-67
2023/12/02 08:17:23;;;;;;;7.47;4.93;;;;;;;9.81;66.19;93839.38;5084370;28;20032;-67
2023/12/02 08:19:49;;;;;;;6.80;3.33;;;;;;;9.96;64.57;93859.63;5086572;28;20031;-66
2023/12/02 08:22:14;;;;;;;6.22;3.47;;;;;;;10.10;62.87;93864.31;5087811;28;20097;-68
2023/12/02 08:24:42;;;;;;;6.53;3.47;;;;;;;10.00;64.88;93871.34;5086652;28;20032;-67
2023/12/02 08:27:09;;;;;;;6.75;3.30;;;;;;;10.16;65.94;93874.09;5087489;28;20036;-66
2023/12/02 08:29:34;;;;;;;5.82;2.45;;;;;;;10.21;63.11;93845.94;5090097;28;20047;-67
2023/12/02 08:32:00;;;;;;;5.50;3.03;;;;;;;10.13;62.65;93812.13;5072802;28;20043;-67
2023/12/02 08:34:25;;;;;;;5.18;2.55;;;;;;;10.19;63.23;93827.09;5057803;28;20089;-67
2023/12/02 08:36:50;;;;;;;7.20;3.25;;;;;;;10.28;63.57;93834.03;5083391;28;20032;-67
2023/12/02 08:39:16;;;;;;;5.03;2.85;;;;;;;10.44;62.56;93822.13;5069568;28;20039;-67
2023/12/02 08:41:42;;;;;;;7.05;3.47;;;;;;;10.33;63.53;93793.81;5089055;28;20078;-67
2023/12/02 08:44:07;;;;;;;15.27;8.77;;;;;;;10.42;62.88;93834.44;5090490;28;20032;-67
2023/12/02 08:46:33;;;;;;;15.15;7.63;;;;;;;10.38;63.92;93820.16;5088257;28;20020;-67
2023/12/02 08:48:58;;;;;;;14.48;8.20;;;;;;;10.56;61.24;93822.72;5075540;28;20325;-67
2023/12/02 08:51:23;;;;;;;11.60;5.68;;;;;;;10.63;60.12;93815.97;5076138;28;20028;-67
2023/12/02 08:53:49;;;;;;;7.68;2.22;;;;;;;10.59;59.69;93807.66;5086757;28;20450;-67
2023/12/02 08:56:14;;;;;;;3.55;1.60;;;;;;;10.61;57.26;93821.28;5067164;28;20585;-66
2023/12/02 08:58:40;;;;;;;3.65;1.40;;;;;;;10.94;54.06;93813.72;5069320;28;20449;-66
2023/12/02 09:01:05;;;;;;;4.70;1.42;;;;;;;11.46;50.68;93759.06;5091409;28;20100;-67
2023/12/02 09:03:31;;;;;;;3.35;1.20;;;;;;;11.72;53.68;93820.59;5092694;28;20055;-67
2023/12/02 09:05:56;;;;;;;10.10;5.18;;;;;;;11.71;54.66;93835.38;5086477;28;20044;-67
2023/12/02 09:08:22;;;;;;;5.57;3.40;;;;;;;11.76;55.26;93847.94;5084339;28;20035;-67
2023/12/02 09:10:47;;;;;;;8.57;3.10;;;;;;;11.89;54.68;93842.28;5069015;28;20056;-67
2023/12/02 09:13:52;;;;;;;5.50;3.47;;;;;;;11.71;55.66;93809.38;5082490;28;20433;-67
2023/12/02 09:16:19;;;;;;;7.60;3.22;;;;;;;11.79;55.94;93809.38;5073940;28;20112;-67
2023/12/02 09:18:45;;;;;;;7.10;2.50;;;;;;;11.93;56.35;93823.59;5084879;28;20020;-68
2023/12/02 09:21:29;;;;;;;5.22;2.50;;;;;;;11.84;56.73;93830.56;5068348;28;20421;-66
2023/12/02 09:23:54;;;;;;;4.75;1.63;;;;;;;11.68;54.07;93811.47;5083196;28;20039;-67
2023/12/02 09:26:27;;;;;;;6.25;1.95;;;;;;;11.75;55.25;93834.09;5071546;28;20024;-67
2023/12/02 09:28:52;;;;;;;5.35;1.98;;;;;;;11.82;54.45;93790.03;5082745;28;20474;-66
2023/12/02 09:31:17;;;;;;;5.88;2.72;;;;;;;12.32;54.03;93802.19;5072129;28;20032;-67
2023/12/02 09:33:43;;;;;;;15.98;4.22;;;;;;;11.99;55.39;93786.53;5081961;28;20054;-67
2023/12/02 09:36:32;;;;;;;7.45;2.42;;;;;;;12.32;51.63;93802.19;5088770;28;20042;-69
2023/12/02 09:39:03;;;;;;;3.60;1.60;;;;;;;12.65;50.20;93789.97;5073686;28;20089;-66
2023/12/02 09:41:31;;;;;;;;;;;;;;;12.90;51.46;93788.16;5073336;28;20102;-68
2023/12/02 09:44:05;;;;;;;7.05;2.55;;;;;;;12.93;53.08;93787.81;5091783;28;19916;-67
2023/12/02 09:46:37;;;;;;;3.00;1.70;;;;;;;12.84;53.92;93801.84;5092007;28;20106;-66
2023/12/02 09:49:36;;;;;;;3.03;1.65;;;;;;;13.02;49.74;93791.22;5096093;28;20027;-67
2023/12/02 09:52:15;;;;;;;4.28;1.50;;;;;;;13.22;48.53;93778.59;5084777;28;20032;-67
2023/12/02 09:54:50;;;;;;;5.10;1.40;;;;;;;13.43;49.12;93790.28;5090467;28;20485;-66
2023/12/02 09:57:38;;;;;;;3.88;1.70;;;;;;;13.61;53.02;93793.50;5091722;28;20039;-66
2023/12/02 10:00:12;;;;;;;5.60;1.80;;;;;;;13.75;46.96;93766.66;5110264;27;20157;-67
2023/12/02 10:02:58;;;;;;;4.60;2.03;;;;;;;14.15;44.95;93782.25;5056488;28;20024;-67
2023/12/02 10:05:24;;;;;;;8.48;3.28;;;;;;;14.28;47.71;93785.91;5086228;28;20024;-67
2023/12/02 10:08:14;;;;;;;17.42;8.00;;;;;;;14.25;49.12;93765.38;5071515;28;20429;-67
2023/12/02 10:10:44;;;;;;;24.15;8.13;;;;;;;14.44;47.15;93773.72;5106576;27;20032;-67
2023/12/02 10:13:25;;;;;;;16.33;6.47;;;;;;;14.49;48.08;93771.41;5093327;28;20050;-66
2023/12/02 10:15:53;;;;;;;15.85;5.40;;;;;;;14.52;50.23;93765.84;5060041;28;20132;-68
2023/12/02 10:18:21;;;;;;;15.00;5.28;;;;;;;14.62;49.51;93771.63;5121112;27;20020;-67
2023/12/02 10:20:50;;;;;;;11.95;4.35;;;;;;;14.80;50.29;93768.69;5067680;28;20044;-68
2023/12/02 10:24:01;;;;;;;8.52;2.90;;;;;;;14.99;44.91;93746.47;5067985;28;20033;-67
2023/12/02 10:26:40;;;;;;;2.63;1.10;;;;;;;15.17;40.71;93738.25;5014962;28;20428;-67
2023/12/02 10:29:16;;;;;;;4.15;1.70;;;;;;;15.33;40.10;93745.91;5084553;28;20126;-68
2023/12/02 10:32:07;;;;;;;5.72;2.08;;;;;;;15.51;40.24;93740.28;5084660;28;20028;-68
2023/12/02 10:34:46;;;;;;;6.07;2.80;;;;;;;15.71;39.07;93718.78;5060591;28;20274;-68
2023/12/02 10:37:11;;;;;;;5.97;2.05;;;;;;;15.89;38.26;93715.78;5087582;28;20071;-68
2023/12/02 10:39:43;;;;;;;5.70;1.75;;;;;;;16.05;37.86;93708.47;5089689;28;20028;-68
2023/12/02 10:42:12;;;;;;;4.43;1.55;;;;;;;16.04;36.90;93691.13;5119514;27;20040;-68
2023/12/02 10:44:38;;;;;;;5.65;2.10;;;;;;;16.19;36.70;93690.28;5108456;27;20027;-67
2023/12/02 10:47:03;;;;;;;7.95;3.47;;;;;;;16.31;34.38;93705.28;5070511;28;20032;-67
2023/12/02 10:49:29;;;;;;;4.35;1.63;;;;;;;16.33;36.07;93701.69;5087345;28;20043;-68
2023/12/02 10:51:55;;;;;;;3.47;1.05;;;;;;;16.54;33.29;93710.28;5070067;28;20084;-68
2023/12/02 10:54:23;;;;;;;5.40;1.08;;;;;;;16.67;31.94;93672.09;5067444;28;20033;-68
2023/12/02 10:56:49;;;;;;;7.53;1.55;;;;;;;16.90;32.44;93698.88;5074246;28;20715;-68
2023/12/02 10:59:16;;;;;;;3.97;1.25;;;;;;;16.78;31.98;93700.44;5087322;28;20024;-68
2023/12/02 11:01:47;;;;;;;4.18;1.00;;;;;;;17.00;32.62;93706.41;5069627;28;20032;-68
2023/12/02 11:04:25;;;;;;;;;;;;;;;16.71;36.57;93694.28;5089186;28;20028;-67
2023/12/02 11:06:53;;;;;;;2.97;0.70;;;;;;;17.16;29.93;93665.91;5120251;27;19920;-68
2023/12/02 11:09:40;;;;;;;4.88;1.15;;;;;;;17.10;30.18;93664.06;5071564;28;20043;-67
2023/12/02 11:12:27;;;;;;;5.75;1.52;;;;;;;17.26;29.38;93676.06;5088763;28;20134;-71
2023/12/02 11:14:57;;;;;;;5.25;1.10;;;;;;;17.26;30.54;93679.50;5087514;28;20476;-68
2023/12/02 11:17:26;;;;;;;3.58;0.90;;;;;;;17.28;31.65;93681.94;5070563;28;20514;-67
2023/12/02 11:20:27;;;;;;;2.72;0.90;;;;;;;17.17;31.41;93678.03;5088439;28;20439;-67
2023/12/02 11:23:18;;;;;;;4.93;0.98;;;;;;;17.29;30.54;93660.72;5067407;28;20115;-66
2023/12/02 11:26:12;;;;;;;7.78;1.00;;;;;;;17.10;31.31;93650.97;5087131;28;20035;-67
2023/12/02 11:29:03;;;;;;;4.72;0.95;;;;;;;17.14;30.18;93673.19;5073944;28;20055;-66
2023/12/02 11:31:58;;;;;;;4.53;1.00;;;;;;;17.07;31.41;93659.22;5085185;28;20032;-67
2023/12/02 11:34:40;;;;;;;5.20;1.10;;;;;;;16.98;31.19;93667.25;5089619;28;20066;-67
2023/12/02 11:37:31;;;;;;;6.15;1.85;;;;;;;17.02;30.89;93670.31;5068365;28;20039;-66